sensor_id;sensor_type;location;lat;lon;timestamp;P1;durP1;ratioP1;P2;durP2;ratioP2
56746;SDS011;42623;49.978;9.966;2023-07-13T00:00:06;2.55;;;1.25;;
56746;SDS011;42623;49.978;9.966;2023-07-13T00:00:19;2.13;;;1.20;;
56746;SDS011;42623;49.978;9.966;2023-07-13T00:00:30;2.10;;;1.20;;
56746;SDS011;42623;49.978;9.966;2023-07-13T00:00:42;2.05;;;1.25;;
56746;SDS011;42623;49.978;9.966;2023-07-13T00:00:52;2.17;;;1.27;;
56746;SDS011;42623;49.978;9.966;2023-07-13T00:01:03;2.37;;;1.40;;
56746;SDS011;42623;49.978;9.966;2023-07-13T00:01:13;3.27;;;1.67;;
56746;SDS011;42623;49.978;9.966;2023-07-13T00:01:24;3.35;;;1.70;;
56746;SDS011;42623;49.978;9.966;2023-07-13T00:01:34;3.20;;;1.57;;
56746;SDS011;42623;49.978;9.966;2023-07-13T00:01:44;2.38;;;1.25;;
56746;SDS011;42623;49.978;9.966;2023-07-13T00:01:56;2.20;;;1.20;;
56746;SDS011;42623;49.978;9.966;2023-07-13T00:02:06;2.07;;;1.13;;
56746;SDS011;42623;49.978;9.966;2023-07-13T00:02:16;2.60;;;1.10;;
56746;SDS011;42623;49.978;9.966;2023-07-13T00:02:26;2.67;;;1.17;;
56746;SDS011;42623;49.978;9.966;2023-07-13T00:02:37;2.47;;;1.10;;
56746;SDS011;42623;49.978;9.966;2023-07-13T00:02:47;2.38;;;1.27;;
56746;SDS011;42623;49.978;9.966;2023-07-13T00:02:57;3.17;;;1.43;;
56746;SDS011;42623;49.978;9.966;2023-07-13T00:03:07;3.50;;;1.63;;
56746;SDS011;42623;49.978;9.966;2023-07-13T00:03:17;3.20;;;1.53;;
56746;SDS011;42623;49.978;9.966;2023-07-13T00:03:27;3.17;;;1.47;;
56746;SDS011;42623;49.978;9.966;2023-07-13T00:03:38;2.83;;;1.30;;
56746;SDS011;42623;49.978;9.966;2023-07-13T00:03:50;2.85;;;1.42;;
56746;SDS011;42623;49.978;9.966;2023-07-13T00:04:01;2.37;;;1.30;;
56746;SDS011;42623;49.978;9.966;2023-07-13T00:04:11;2.47;;;1.37;;
56746;SDS011;42623;49.978;9.966;2023-07-13T00:04:22;2.77;;;1.40;;
56746;SDS011;42623;49.978;9.966;2023-07-13T00:04:33;2.47;;;1.30;;
56746;SDS011;42623;49.978;9.966;2023-07-13T00:04:43;2.60;;;1.33;;
56746;SDS011;42623;49.978;9.966;2023-07-13T00:04:53;2.23;;;1.20;;
56746;SDS011;42623;49.978;9.966;2023-07-13T00:05:03;3.20;;;1.40;;
56746;SDS011;42623;49.978;9.966;2023-07-13T00:05:14;3.13;;;1.30;;
56746;SDS011;42623;49.978;9.966;2023-07-13T00:05:24;3.13;;;1.30;;
56746;SDS011;42623;49.978;9.966;2023-07-13T00:05:34;2.53;;;1.40;;
56746;SDS011;42623;49.978;9.966;2023-07-13T00:05:44;3.23;;;1.60;;
56746;SDS011;42623;49.978;9.966;2023-07-13T00:05:57;3.42;;;1.58;;
56746;SDS011;42623;49.978;9.966;2023-07-13T00:06:08;3.15;;;1.33;;
56746;SDS011;42623;49.978;9.966;2023-07-13T00:06:18;2.65;;;1.13;;
56746;SDS011;42623;49.978;9.966;2023-07-13T00:06:30;2.67;;;1.13;;
56746;SDS011;42623;49.978;9.966;2023-07-13T00:06:43;2.60;;;1.25;;
56746;SDS011;42623;49.978;9.966;2023-07-13T00:06:54;2.50;;;1.40;;
56746;SDS011;42623;49.978;9.966;2023-07-13T00:07:04;2.70;;;1.40;;
56746;SDS011;42623;49.978;9.966;2023-07-13T00:07:14;2.43;;;1.33;;
56746;SDS011;42623;49.978;9.966;2023-07-13T00:07:25;1.90;;;1.20;;
56746;SDS011;42623;49.978;9.966;2023-07-13T00:07:35;2.40;;;1.20;;
56746;SDS011;42623;49.978;9.966;2023-07-13T00:07:45;2.57;;;1.17;;
56746;SDS011;42623;49.978;9.966;2023-07-13T00:07:56;2.77;;;1.20;;
56746;SDS011;42623;49.978;9.966;2023-07-13T00:08:06;2.70;;;1.20;;
56746;SDS011;42623;49.978;9.966;2023-07-13T00:08:18;2.75;;;1.17;;
56746;SDS011;42623;49.978;9.966;2023-07-13T00:08:30;2.73;;;1.30;;
56746;SDS011;42623;49.978;9.966;2023-07-13T00:08:40;2.63;;;1.23;;
56746;SDS011;42623;49.978;9.966;2023-07-13T00:08:50;2.37;;;1.20;;
56746;SDS011;42623;49.978;9.966;2023-07-13T00:09:00;2.63;;;1.20;;
56746;SDS011;42623;49.978;9.966;2023-07-13T00:09:12;3.30;;;1.40;;
56746;SDS011;42623;49.978;9.966;2023-07-13T00:09:23;3.72;;;1.50;;
56746;SDS011;42623;49.978;9.966;2023-07-13T00:09:33;3.17;;;1.40;;
56746;SDS011;42623;49.978;9.966;2023-07-13T00:09:44;2.83;;;1.27;;
56746;SDS011;42623;49.978;9.966;2023-07-13T00:09:54;2.50;;;1.20;;
56746;SDS011;42623;49.978;9.966;2023-07-13T00:10:04;2.27;;;1.10;;
56746;SDS011;42623;49.978;9.966;2023-07-13T00:10:15;2.13;;;1.05;;
56746;SDS011;42623;49.978;9.966;2023-07-13T00:10:25;2.17;;;1.10;;
56746;SDS011;42623;49.978;9.966;2023-07-13T00:10:39;2.15;;;1.20;;
56746;SDS011;42623;49.978;9.966;2023-07-13T00:10:51;1.77;;;1.10;;
56746;SDS011;42623;49.978;9.966;2023-07-13T00:11:04;2.00;;;1.15;;
56746;SDS011;42623;49.978;9.966;2023-07-13T00:11:14;2.93;;;1.57;;
56746;SDS011;42623;49.978;9.966;2023-07-13T00:11:25;2.95;;;1.67;;
56746;SDS011;42623;49.978;9.966;2023-07-13T00:11:35;2.60;;;1.53;;
56746;SDS011;42623;49.978;9.966;2023-07-13T00:11:45;2.50;;;1.43;;
56746;SDS011;42623;49.978;9.966;2023-07-13T00:11:58;2.55;;;1.35;;
56746;SDS011;42623;49.978;9.966;2023-07-13T00:12:28;2.90;;;1.40;;
56746;SDS011;42623;49.978;9.966;2023-07-13T00:12:38;2.72;;;1.42;;
56746;SDS011;42623;49.978;9.966;2023-07-13T00:12:49;3.00;;;1.43;;
56746;SDS011;42623;49.978;9.966;2023-07-13T00:12:59;2.83;;;1.43;;
56746;SDS011;42623;49.978;9.966;2023-07-13T00:13:09;2.75;;;1.30;;
56746;SDS011;42623;49.978;9.966;2023-07-13T00:13:19;2.40;;;1.10;;
56746;SDS011;42623;49.978;9.966;2023-07-13T00:13:30;2.83;;;1.30;;
56746;SDS011;42623;49.978;9.966;2023-07-13T00:13:40;2.95;;;1.35;;
56746;SDS011;42623;49.978;9.966;2023-07-13T00:13:51;3.17;;;1.60;;
56746;SDS011;42623;49.978;9.966;2023-07-13T00:14:01;3.50;;;1.63;;
56746;SDS011;42623;49.978;9.966;2023-07-13T00:14:13;3.33;;;1.48;;
56746;SDS011;42623;49.978;9.966;2023-07-13T00:14:23;3.38;;;1.25;;
56746;SDS011;42623;49.978;9.966;2023-07-13T00:14:34;2.87;;;1.17;;
56746;SDS011;42623;49.978;9.966;2023-07-13T00:14:44;2.53;;;1.17;;
56746;SDS011;42623;49.978;9.966;2023-07-13T00:14:57;2.23;;;1.20;;
56746;SDS011;42623;49.978;9.966;2023-07-13T00:15:16;2.30;;;1.27;;
56746;SDS011;42623;49.978;9.966;2023-07-13T00:15:27;2.58;;;1.40;;
56746;SDS011;42623;49.978;9.966;2023-07-13T00:15:39;2.85;;;1.38;;
56746;SDS011;42623;49.978;9.966;2023-07-13T00:15:50;3.22;;;1.38;;
56746;SDS011;42623;49.978;9.966;2023-07-13T00:16:00;3.43;;;1.33;;
56746;SDS011;42623;49.978;9.966;2023-07-13T00:16:11;3.13;;;1.30;;
56746;SDS011;42623;49.978;9.966;2023-07-13T00:16:21;2.97;;;1.30;;
56746;SDS011;42623;49.978;9.966;2023-07-13T00:16:33;2.70;;;1.30;;
56746;SDS011;42623;49.978;9.966;2023-07-13T00:16:43;3.17;;;1.38;;
56746;SDS011;42623;49.978;9.966;2023-07-13T00:16:53;3.07;;;1.37;;
56746;SDS011;42623;49.978;9.966;2023-07-13T00:17:04;2.35;;;1.20;;
56746;SDS011;42623;49.978;9.966;2023-07-13T00:17:14;2.13;;;1.07;;
56746;SDS011;42623;49.978;9.966;2023-07-13T00:17:24;2.77;;;1.20;;
56746;SDS011;42623;49.978;9.966;2023-07-13T00:17:34;3.30;;;1.40;;
56746;SDS011;42623;49.978;9.966;2023-07-13T00:17:44;3.70;;;1.70;;
56746;SDS011;42623;49.978;9.966;2023-07-13T00:17:55;3.30;;;1.70;;
56746;SDS011;42623;49.978;9.966;2023-07-13T00:18:05;3.13;;;1.57;;
56746;SDS011;42623;49.978;9.966;2023-07-13T00:18:15;2.67;;;1.33;;
56746;SDS011;42623;49.978;9.966;2023-07-13T00:18:25;2.33;;;1.23;;
56746;SDS011;42623;49.978;9.966;2023-07-13T00:18:35;2.30;;;1.23;;
56746;SDS011;42623;49.978;9.966;2023-07-13T00:18:46;2.57;;;1.27;;
56746;SDS011;42623;49.978;9.966;2023-07-13T00:18:56;2.90;;;1.27;;
56746;SDS011;42623;49.978;9.966;2023-07-13T00:19:06;3.03;;;1.33;;
56746;SDS011;42623;49.978;9.966;2023-07-13T00:19:16;2.93;;;1.43;;
56746;SDS011;42623;49.978;9.966;2023-07-13T00:19:26;3.37;;;1.57;;
56746;SDS011;42623;49.978;9.966;2023-07-13T00:19:37;3.10;;;1.50;;
56746;SDS011;42623;49.978;9.966;2023-07-13T00:19:47;3.40;;;1.50;;
56746;SDS011;42623;49.978;9.966;2023-07-13T00:19:58;2.83;;;1.35;;
56746;SDS011;42623;49.978;9.966;2023-07-13T00:20:08;2.70;;;1.30;;
56746;SDS011;42623;49.978;9.966;2023-07-13T00:20:19;2.67;;;1.40;;
56746;SDS011;42623;49.978;9.966;2023-07-13T00:20:31;3.67;;;1.77;;
56746;SDS011;42623;49.978;9.966;2023-07-13T00:20:43;3.65;;;1.80;;
56746;SDS011;42623;49.978;9.966;2023-07-13T00:20:53;3.25;;;1.73;;
56746;SDS011;42623;49.978;9.966;2023-07-13T00:21:03;2.50;;;1.40;;
56746;SDS011;42623;49.978;9.966;2023-07-13T00:21:16;2.38;;;1.20;;
56746;SDS011;42623;49.978;9.966;2023-07-13T00:21:26;2.37;;;1.10;;
56746;SDS011;42623;49.978;9.966;2023-07-13T00:21:37;3.13;;;1.40;;
56746;SDS011;42623;49.978;9.966;2023-07-13T00:21:47;3.42;;;1.50;;
56746;SDS011;42623;49.978;9.966;2023-07-13T00:21:57;3.53;;;1.50;;
56746;SDS011;42623;49.978;9.966;2023-07-13T00:22:08;2.87;;;1.37;;
56746;SDS011;42623;49.978;9.966;2023-07-13T00:22:18;2.92;;;1.58;;
56746;SDS011;42623;49.978;9.966;2023-07-13T00:22:28;3.50;;;1.80;;
56746;SDS011;42623;49.978;9.966;2023-07-13T00:22:39;3.50;;;1.80;;
56746;SDS011;42623;49.978;9.966;2023-07-13T00:22:49;3.00;;;1.58;;
56746;SDS011;42623;49.978;9.966;2023-07-13T00:22:59;3.03;;;1.50;;
56746;SDS011;42623;49.978;9.966;2023-07-13T00:23:09;2.77;;;1.43;;
56746;SDS011;42623;49.978;9.966;2023-07-13T00:23:19;2.73;;;1.30;;
56746;SDS011;42623;49.978;9.966;2023-07-13T00:23:33;2.30;;;1.27;;
56746;SDS011;42623;49.978;9.966;2023-07-13T00:23:43;2.60;;;1.30;;
56746;SDS011;42623;49.978;9.966;2023-07-13T00:23:54;2.37;;;1.20;;
56746;SDS011;42623;49.978;9.966;2023-07-13T00:24:04;2.10;;;1.10;;
56746;SDS011;42623;49.978;9.966;2023-07-13T00:24:15;1.73;;;1.15;;
56746;SDS011;42623;49.978;9.966;2023-07-13T00:24:26;2.45;;;1.38;;
56746;SDS011;42623;49.978;9.966;2023-07-13T00:24:37;2.67;;;1.47;;
56746;SDS011;42623;49.978;9.966;2023-07-13T00:24:54;2.45;;;1.33;;
56746;SDS011;42623;49.978;9.966;2023-07-13T00:25:06;2.65;;;1.20;;
56746;SDS011;42623;49.978;9.966;2023-07-13T00:25:16;2.85;;;1.30;;
56746;SDS011;42623;49.978;9.966;2023-07-13T00:25:26;2.40;;;1.30;;
56746;SDS011;42623;49.978;9.966;2023-07-13T00:25:39;2.38;;;1.30;;
56746;SDS011;42623;49.978;9.966;2023-07-13T00:25:49;2.97;;;1.30;;
56746;SDS011;42623;49.978;9.966;2023-07-13T00:26:02;3.80;;;1.60;;
56746;SDS011;42623;49.978;9.966;2023-07-13T00:26:12;4.20;;;1.80;;
56746;SDS011;42623;49.978;9.966;2023-07-13T00:26:23;3.80;;;1.90;;
56746;SDS011;42623;49.978;9.966;2023-07-13T00:26:33;2.57;;;1.50;;
56746;SDS011;42623;49.978;9.966;2023-07-13T00:26:43;2.40;;;1.50;;
56746;SDS011;42623;49.978;9.966;2023-07-13T00:26:57;3.65;;;1.60;;
56746;SDS011;42623;49.978;9.966;2023-07-13T00:27:08;4.93;;;1.70;;
56746;SDS011;42623;49.978;9.966;2023-07-13T00:27:18;5.15;;;1.55;;
56746;SDS011;42623;49.978;9.966;2023-07-13T00:27:29;3.77;;;1.43;;
56746;SDS011;42623;49.978;9.966;2023-07-13T00:27:42;2.33;;;1.23;;
56746;SDS011;42623;49.978;9.966;2023-07-13T00:27:52;2.67;;;1.30;;
56746;SDS011;42623;49.978;9.966;2023-07-13T00:28:02;2.67;;;1.50;;
56746;SDS011;42623;49.978;9.966;2023-07-13T00:28:12;2.43;;;1.50;;
56746;SDS011;42623;49.978;9.966;2023-07-13T00:28:22;2.23;;;1.40;;
56746;SDS011;42623;49.978;9.966;2023-07-13T00:28:33;2.30;;;1.30;;
56746;SDS011;42623;49.978;9.966;2023-07-13T00:28:43;2.67;;;1.35;;
56746;SDS011;42623;49.978;9.966;2023-07-13T00:28:54;3.07;;;1.40;;
56746;SDS011;42623;49.978;9.966;2023-07-13T00:29:04;3.00;;;1.40;;
56746;SDS011;42623;49.978;9.966;2023-07-13T00:29:18;2.50;;;1.27;;
56746;SDS011;42623;49.978;9.966;2023-07-13T00:29:28;2.77;;;1.40;;
56746;SDS011;42623;49.978;9.966;2023-07-13T00:29:39;3.30;;;1.50;;
56746;SDS011;42623;49.978;9.966;2023-07-13T00:29:49;3.43;;;1.60;;
56746;SDS011;42623;49.978;9.966;2023-07-13T00:30:00;3.35;;;1.50;;
56746;SDS011;42623;49.978;9.966;2023-07-13T00:30:10;3.27;;;1.50;;
56746;SDS011;42623;49.978;9.966;2023-07-13T00:30:21;3.00;;;1.45;;
56746;SDS011;42623;49.978;9.966;2023-07-13T00:30:31;2.70;;;1.40;;
56746;SDS011;42623;49.978;9.966;2023-07-13T00:30:41;2.60;;;1.37;;
56746;SDS011;42623;49.978;9.966;2023-07-13T00:30:51;2.93;;;1.53;;
56746;SDS011;42623;49.978;9.966;2023-07-13T00:31:01;3.20;;;1.67;;
56746;SDS011;42623;49.978;9.966;2023-07-13T00:31:12;4.37;;;1.73;;
56746;SDS011;42623;49.978;9.966;2023-07-13T00:31:24;4.50;;;1.77;;
56746;SDS011;42623;49.978;9.966;2023-07-13T00:31:34;4.43;;;1.63;;
56746;SDS011;42623;49.978;9.966;2023-07-13T00:31:45;2.75;;;1.38;;
56746;SDS011;42623;49.978;9.966;2023-07-13T00:31:56;2.87;;;1.40;;
56746;SDS011;42623;49.978;9.966;2023-07-13T00:32:08;3.60;;;1.58;;
56746;SDS011;42623;49.978;9.966;2023-07-13T00:32:19;3.70;;;1.75;;
56746;SDS011;42623;49.978;9.966;2023-07-13T00:32:29;3.00;;;1.57;;
56746;SDS011;42623;49.978;9.966;2023-07-13T00:32:40;2.25;;;1.40;;
56746;SDS011;42623;49.978;9.966;2023-07-13T00:32:50;2.13;;;1.23;;
56746;SDS011;42623;49.978;9.966;2023-07-13T00:33:01;2.33;;;1.33;;
56746;SDS011;42623;49.978;9.966;2023-07-13T00:33:11;2.75;;;1.40;;
56746;SDS011;42623;49.978;9.966;2023-07-13T00:33:21;3.27;;;1.57;;
56746;SDS011;42623;49.978;9.966;2023-07-13T00:33:32;3.22;;;1.50;;
56746;SDS011;42623;49.978;9.966;2023-07-13T00:33:43;3.00;;;1.47;;
56746;SDS011;42623;49.978;9.966;2023-07-13T00:33:53;2.80;;;1.25;;
56746;SDS011;42623;49.978;9.966;2023-07-13T00:34:03;2.67;;;1.10;;
56746;SDS011;42623;49.978;9.966;2023-07-13T00:34:13;3.07;;;1.20;;
56746;SDS011;42623;49.978;9.966;2023-07-13T00:34:23;3.53;;;1.50;;
56746;SDS011;42623;49.978;9.966;2023-07-13T00:34:34;4.10;;;1.60;;
56746;SDS011;42623;49.978;9.966;2023-07-13T00:34:44;3.57;;;1.47;;
56746;SDS011;42623;49.978;9.966;2023-07-13T00:34:54;4.40;;;1.27;;
56746;SDS011;42623;49.978;9.966;2023-07-13T00:35:04;4.03;;;1.23;;
56746;SDS011;42623;49.978;9.966;2023-07-13T00:35:15;4.20;;;1.30;;
56746;SDS011;42623;49.978;9.966;2023-07-13T00:35:25;2.35;;;1.20;;
56746;SDS011;42623;49.978;9.966;2023-07-13T00:35:35;2.63;;;1.40;;
56746;SDS011;42623;49.978;9.966;2023-07-13T00:35:45;2.43;;;1.40;;
56746;SDS011;42623;49.978;9.966;2023-07-13T00:35:56;2.92;;;1.58;;
56746;SDS011;42623;49.978;9.966;2023-07-13T00:36:06;2.97;;;1.40;;
56746;SDS011;42623;49.978;9.966;2023-07-13T00:36:17;3.42;;;1.42;;
56746;SDS011;42623;49.978;9.966;2023-07-13T00:36:27;3.47;;;1.47;;
56746;SDS011;42623;49.978;9.966;2023-07-13T00:36:37;3.50;;;1.60;;
56746;SDS011;42623;49.978;9.966;2023-07-13T00:36:47;3.10;;;1.60;;
56746;SDS011;42623;49.978;9.966;2023-07-13T00:36:58;2.55;;;1.40;;
56746;SDS011;42623;49.978;9.966;2023-07-13T00:37:08;1.97;;;1.13;;
56746;SDS011;42623;49.978;9.966;2023-07-13T00:37:18;2.10;;;1.10;;
56746;SDS011;42623;49.978;9.966;2023-07-13T00:37:29;2.38;;;1.40;;
56746;SDS011;42623;49.978;9.966;2023-07-13T00:37:39;2.47;;;1.43;;
56746;SDS011;42623;49.978;9.966;2023-07-13T00:37:49;2.37;;;1.40;;
56746;SDS011;42623;49.978;9.966;2023-07-13T00:38:00;2.03;;;1.10;;
56746;SDS011;42623;49.978;9.966;2023-07-13T00:38:10;1.90;;;1.07;;
56746;SDS011;42623;49.978;9.966;2023-07-13T00:38:20;2.57;;;1.17;;
56746;SDS011;42623;49.978;9.966;2023-07-13T00:38:30;3.67;;;1.57;;
56746;SDS011;42623;49.978;9.966;2023-07-13T00:38:40;4.37;;;1.77;;
56746;SDS011;42623;49.978;9.966;2023-07-13T00:38:50;4.53;;;1.90;;
56746;SDS011;42623;49.978;9.966;2023-07-13T00:39:01;3.87;;;1.60;;
56746;SDS011;42623;49.978;9.966;2023-07-13T00:39:11;3.27;;;1.50;;
56746;SDS011;42623;49.978;9.966;2023-07-13T00:39:22;2.28;;;1.17;;
56746;SDS011;42623;49.978;9.966;2023-07-13T00:39:33;2.58;;;1.10;;
56746;SDS011;42623;49.978;9.966;2023-07-13T00:39:43;3.00;;;1.20;;
56746;SDS011;42623;49.978;9.966;2023-07-13T00:39:53;3.23;;;1.20;;
56746;SDS011;42623;49.978;9.966;2023-07-13T00:40:04;2.67;;;1.20;;
56746;SDS011;42623;49.978;9.966;2023-07-13T00:40:15;3.28;;;1.40;;
56746;SDS011;42623;49.978;9.966;2023-07-13T00:40:25;2.90;;;1.40;;
56746;SDS011;42623;49.978;9.966;2023-07-13T00:40:36;2.70;;;1.30;;
56746;SDS011;42623;49.978;9.966;2023-07-13T00:40:46;2.60;;;1.30;;
56746;SDS011;42623;49.978;9.966;2023-07-13T00:40:56;3.00;;;1.40;;
56746;SDS011;42623;49.978;9.966;2023-07-13T00:41:06;3.37;;;1.60;;
56746;SDS011;42623;49.978;9.966;2023-07-13T00:41:17;4.47;;;1.70;;
56746;SDS011;42623;49.978;9.966;2023-07-13T00:41:27;4.07;;;1.50;;
56746;SDS011;42623;49.978;9.966;2023-07-13T00:41:37;3.80;;;1.40;;
56746;SDS011;42623;49.978;9.966;2023-07-13T00:41:47;2.13;;;1.17;;
56746;SDS011;42623;49.978;9.966;2023-07-13T00:41:57;2.63;;;1.37;;
56746;SDS011;42623;49.978;9.966;2023-07-13T00:42:08;2.65;;;1.38;;
56746;SDS011;42623;49.978;9.966;2023-07-13T00:42:18;2.73;;;1.37;;
56746;SDS011;42623;49.978;9.966;2023-07-13T00:42:28;2.50;;;1.23;;
56746;SDS011;42623;49.978;9.966;2023-07-13T00:42:38;2.63;;;1.13;;
56746;SDS011;42623;49.978;9.966;2023-07-13T00:42:48;3.17;;;1.38;;
56746;SDS011;42623;49.978;9.966;2023-07-13T00:43:01;3.28;;;1.58;;
56746;SDS011;42623;49.978;9.966;2023-07-13T00:43:13;2.77;;;1.53;;
56746;SDS011;42623;49.978;9.966;2023-07-13T00:43:25;2.33;;;1.17;;
56746;SDS011;42623;49.978;9.966;2023-07-13T00:43:36;3.00;;;1.25;;
56746;SDS011;42623;49.978;9.966;2023-07-13T00:43:46;3.17;;;1.20;;
56746;SDS011;42623;49.978;9.966;2023-07-13T00:43:56;3.25;;;1.20;;
56746;SDS011;42623;49.978;9.966;2023-07-13T00:44:10;2.90;;;1.30;;
56746;SDS011;42623;49.978;9.966;2023-07-13T00:44:23;3.13;;;1.50;;
56746;SDS011;42623;49.978;9.966;2023-07-13T00:44:33;4.00;;;1.58;;
56746;SDS011;42623;49.978;9.966;2023-07-13T00:46:14;4.37;;;1.33;;
56746;SDS011;42623;49.978;9.966;2023-07-13T00:46:26;4.25;;;1.30;;
56746;SDS011;42623;49.978;9.966;2023-07-13T00:46:36;3.45;;;1.35;;
56746;SDS011;42623;49.978;9.966;2023-07-13T00:46:46;2.93;;;1.33;;
56746;SDS011;42623;49.978;9.966;2023-07-13T00:46:56;4.10;;;1.47;;
56746;SDS011;42623;49.978;9.966;2023-07-13T00:47:08;3.95;;;1.50;;
56746;SDS011;42623;49.978;9.966;2023-07-13T00:47:18;4.17;;;1.67;;
56746;SDS011;42623;49.978;9.966;2023-07-13T00:47:28;4.50;;;1.80;;
56746;SDS011;42623;49.978;9.966;2023-07-13T00:47:39;4.30;;;1.70;;
56746;SDS011;42623;49.978;9.966;2023-07-13T00:47:49;4.10;;;1.60;;
56746;SDS011;42623;49.978;9.966;2023-07-13T00:47:59;3.43;;;1.50;;
56746;SDS011;42623;49.978;9.966;2023-07-13T00:48:10;3.28;;;1.48;;
56746;SDS011;42623;49.978;9.966;2023-07-13T00:48:22;2.65;;;1.33;;
56746;SDS011;42623;49.978;9.966;2023-07-13T00:48:34;1.85;;;1.15;;
56746;SDS011;42623;49.978;9.966;2023-07-13T00:48:46;2.40;;;1.38;;
56746;SDS011;42623;49.978;9.966;2023-07-13T00:48:59;2.47;;;1.52;;
56746;SDS011;42623;49.978;9.966;2023-07-13T00:49:13;2.88;;;1.55;;
56746;SDS011;42623;49.978;9.966;2023-07-13T00:49:25;2.60;;;1.30;;
56746;SDS011;42623;49.978;9.966;2023-07-13T00:49:36;2.97;;;1.42;;
56746;SDS011;42623;49.978;9.966;2023-07-13T00:49:46;3.13;;;1.40;;
56746;SDS011;42623;49.978;9.966;2023-07-13T00:49:56;3.22;;;1.45;;
56746;SDS011;42623;49.978;9.966;2023-07-13T00:50:08;3.30;;;1.60;;
56746;SDS011;42623;49.978;9.966;2023-07-13T00:50:19;3.33;;;1.63;;
56746;SDS011;42623;49.978;9.966;2023-07-13T00:50:29;2.83;;;1.55;;
56746;SDS011;42623;49.978;9.966;2023-07-13T00:50:40;2.50;;;1.37;;
56746;SDS011;42623;49.978;9.966;2023-07-13T00:50:52;2.92;;;1.60;;
56746;SDS011;42623;49.978;9.966;2023-07-13T00:51:02;2.97;;;1.58;;
56746;SDS011;42623;49.978;9.966;2023-07-13T00:51:13;2.83;;;1.43;;
56746;SDS011;42623;49.978;9.966;2023-07-13T00:51:25;2.42;;;1.20;;
56746;SDS011;42623;49.978;9.966;2023-07-13T00:51:42;2.30;;;1.15;;
56746;SDS011;42623;49.978;9.966;2023-07-13T00:51:54;1.98;;;1.17;;
56746;SDS011;42623;49.978;9.966;2023-07-13T00:52:06;2.42;;;1.35;;
56746;SDS011;42623;49.978;9.966;2023-07-13T00:52:16;3.13;;;1.60;;
56746;SDS011;42623;49.978;9.966;2023-07-13T00:52:27;3.47;;;1.70;;
56746;SDS011;42623;49.978;9.966;2023-07-13T00:52:39;3.15;;;1.50;;
56746;SDS011;42623;49.978;9.966;2023-07-13T00:52:52;3.13;;;1.50;;
56746;SDS011;42623;49.978;9.966;2023-07-13T00:53:03;3.75;;;1.67;;
56746;SDS011;42623;49.978;9.966;2023-07-13T00:53:13;4.00;;;1.73;;
56746;SDS011;42623;49.978;9.966;2023-07-13T00:53:24;3.60;;;1.57;;
56746;SDS011;42623;49.978;9.966;2023-07-13T00:53:35;2.67;;;1.40;;
56746;SDS011;42623;49.978;9.966;2023-07-13T00:53:45;2.78;;;1.42;;
56746;SDS011;42623;49.978;9.966;2023-07-13T00:53:56;2.87;;;1.40;;
56746;SDS011;42623;49.978;9.966;2023-07-13T00:54:09;3.08;;;1.45;;
56746;SDS011;42623;49.978;9.966;2023-07-13T00:54:30;2.88;;;1.45;;
56746;SDS011;42623;49.978;9.966;2023-07-13T00:54:43;2.55;;;1.35;;
56746;SDS011;42623;49.978;9.966;2023-07-13T00:54:54;2.67;;;1.25;;
56746;SDS011;42623;49.978;9.966;2023-07-13T00:55:04;2.50;;;1.13;;
56746;SDS011;42623;49.978;9.966;2023-07-13T00:55:14;2.40;;;1.15;;
56746;SDS011;42623;49.978;9.966;2023-07-13T00:55:25;2.40;;;1.10;;
56746;SDS011;42623;49.978;9.966;2023-07-13T00:55:36;3.33;;;1.27;;
56746;SDS011;42623;49.978;9.966;2023-07-13T00:55:47;4.23;;;1.40;;
56746;SDS011;42623;49.978;9.966;2023-07-13T00:55:58;4.28;;;1.48;;
56746;SDS011;42623;49.978;9.966;2023-07-13T00:56:09;3.08;;;1.42;;
56746;SDS011;42623;49.978;9.966;2023-07-13T00:56:19;3.03;;;1.50;;
56746;SDS011;42623;49.978;9.966;2023-07-13T00:56:30;2.67;;;1.30;;
56746;SDS011;42623;49.978;9.966;2023-07-13T00:56:43;2.20;;;1.30;;
56746;SDS011;42623;49.978;9.966;2023-07-13T00:56:54;2.65;;;1.25;;
56746;SDS011;42623;49.978;9.966;2023-07-13T00:57:06;2.67;;;1.30;;
56746;SDS011;42623;49.978;9.966;2023-07-13T00:57:17;3.63;;;1.52;;
56746;SDS011;42623;49.978;9.966;2023-07-13T00:57:28;4.03;;;1.65;;
56746;SDS011;42623;49.978;9.966;2023-07-13T00:57:38;3.73;;;1.70;;
56746;SDS011;42623;49.978;9.966;2023-07-13T00:57:49;3.03;;;1.43;;
56746;SDS011;42623;49.978;9.966;2023-07-13T00:57:59;3.07;;;1.53;;
56746;SDS011;42623;49.978;9.966;2023-07-13T00:58:09;3.50;;;1.50;;
56746;SDS011;42623;49.978;9.966;2023-07-13T00:58:19;3.20;;;1.40;;
56746;SDS011;42623;49.978;9.966;2023-07-13T00:58:30;2.83;;;1.30;;
56746;SDS011;42623;49.978;9.966;2023-07-13T00:58:40;2.22;;;1.13;;
56746;SDS011;42623;49.978;9.966;2023-07-13T00:58:50;2.30;;;1.20;;
56746;SDS011;42623;49.978;9.966;2023-07-13T00:59:01;2.47;;;1.30;;
56746;SDS011;42623;49.978;9.966;2023-07-13T00:59:12;2.33;;;1.20;;
56746;SDS011;42623;49.978;9.966;2023-07-13T00:59:23;3.58;;;1.58;;
56746;SDS011;42623;49.978;9.966;2023-07-13T00:59:34;4.10;;;1.60;;
56746;SDS011;42623;49.978;9.966;2023-07-13T00:59:46;3.88;;;1.60;;
56746;SDS011;42623;49.978;9.966;2023-07-13T00:59:57;3.30;;;1.40;;
56746;SDS011;42623;49.978;9.966;2023-07-13T01:00:08;3.40;;;1.45;;
56746;SDS011;42623;49.978;9.966;2023-07-13T01:00:19;2.97;;;1.40;;
56746;SDS011;42623;49.978;9.966;2023-07-13T01:00:30;3.05;;;1.55;;
56746;SDS011;42623;49.978;9.966;2023-07-13T01:00:41;3.33;;;1.55;;
56746;SDS011;42623;49.978;9.966;2023-07-13T01:00:51;3.13;;;1.60;;
56746;SDS011;42623;49.978;9.966;2023-07-13T01:01:02;2.92;;;1.50;;
56746;SDS011;42623;49.978;9.966;2023-07-13T01:01:12;3.27;;;1.70;;
56746;SDS011;42623;49.978;9.966;2023-07-13T01:01:23;3.80;;;1.75;;
56746;SDS011;42623;49.978;9.966;2023-07-13T01:01:33;3.67;;;1.60;;
56746;SDS011;42623;49.978;9.966;2023-07-13T01:01:43;2.87;;;1.40;;
56746;SDS011;42623;49.978;9.966;2023-07-13T01:01:53;2.67;;;1.30;;
56746;SDS011;42623;49.978;9.966;2023-07-13T01:02:04;2.45;;;1.38;;
56746;SDS011;42623;49.978;9.966;2023-07-13T01:02:14;2.80;;;1.50;;
56746;SDS011;42623;49.978;9.966;2023-07-13T01:02:26;2.47;;;1.40;;
56746;SDS011;42623;49.978;9.966;2023-07-13T01:02:39;2.90;;;1.50;;
56746;SDS011;42623;49.978;9.966;2023-07-13T01:02:49;2.22;;;1.27;;
56746;SDS011;42623;49.978;9.966;2023-07-13T01:02:59;2.30;;;1.20;;
56746;SDS011;42623;49.978;9.966;2023-07-13T01:03:11;2.63;;;1.20;;
56746;SDS011;42623;49.978;9.966;2023-07-13T01:03:22;2.70;;;1.30;;
56746;SDS011;42623;49.978;9.966;2023-07-13T01:03:32;2.37;;;1.17;;
56746;SDS011;42623;49.978;9.966;2023-07-13T01:03:44;3.08;;;1.40;;
56746;SDS011;42623;49.978;9.966;2023-07-13T01:03:54;3.22;;;1.45;;
56746;SDS011;42623;49.978;9.966;2023-07-13T01:04:05;3.60;;;1.60;;
56746;SDS011;42623;49.978;9.966;2023-07-13T01:04:18;2.72;;;1.38;;
56746;SDS011;42623;49.978;9.966;2023-07-13T01:04:28;2.60;;;1.40;;
56746;SDS011;42623;49.978;9.966;2023-07-13T01:04:38;2.95;;;1.42;;
56746;SDS011;42623;49.978;9.966;2023-07-13T01:04:48;2.97;;;1.53;;
56746;SDS011;42623;49.978;9.966;2023-07-13T01:04:58;2.90;;;1.70;;
56746;SDS011;42623;49.978;9.966;2023-07-13T01:05:09;3.83;;;1.97;;
56746;SDS011;42623;49.978;9.966;2023-07-13T01:05:20;4.03;;;1.98;;
56746;SDS011;42623;49.978;9.966;2023-07-13T01:05:32;4.40;;;1.90;;
56746;SDS011;42623;49.978;9.966;2023-07-13T01:05:42;4.25;;;1.85;;
56746;SDS011;42623;49.978;9.966;2023-07-13T01:05:52;4.20;;;1.77;;
56746;SDS011;42623;49.978;9.966;2023-07-13T01:06:03;3.72;;;1.58;;
56746;SDS011;42623;49.978;9.966;2023-07-13T01:06:14;2.80;;;1.30;;
56746;SDS011;42623;49.978;9.966;2023-07-13T01:06:24;2.70;;;1.42;;
56746;SDS011;42623;49.978;9.966;2023-07-13T01:06:35;2.77;;;1.57;;
56746;SDS011;42623;49.978;9.966;2023-07-13T01:06:46;4.43;;;1.70;;
56746;SDS011;42623;49.978;9.966;2023-07-13T01:06:56;4.43;;;1.60;;
56746;SDS011;42623;49.978;9.966;2023-07-13T01:07:07;4.03;;;1.48;;